createdAt,value
2022-07-25T00:01:49.894Z,20.96
2022-07-25T00:04:17.516Z,20.94
2022-07-25T00:06:45.899Z,20.93
2022-07-25T00:09:13.304Z,20.89
2022-07-25T00:11:40.355Z,20.91
2022-07-25T00:14:07.677Z,20.89
2022-07-25T00:16:35.325Z,20.87
2022-07-25T00:19:02.422Z,20.84
2022-07-25T00:21:29.396Z,20.83
2022-07-25T00:23:56.386Z,20.82
2022-07-25T00:26:23.280Z,20.80
2022-07-25T00:28:50.157Z,20.77
2022-07-25T00:31:17.161Z,20.76
2022-07-25T00:33:44.150Z,20.74
2022-07-25T00:36:11.279Z,20.73
2022-07-25T00:38:38.267Z,20.73
2022-07-25T00:41:05.440Z,20.70
2022-07-25T00:43:32.693Z,20.69
2022-07-25T00:46:00.509Z,20.65
2022-07-25T00:48:28.933Z,20.66
2022-07-25T00:50:56.676Z,20.64
2022-07-25T00:53:24.622Z,20.63
2022-07-25T00:55:52.815Z,20.61
2022-07-25T00:58:19.918Z,20.62
2022-07-25T01:00:47.742Z,20.59
2022-07-25T01:03:15.057Z,20.59
2022-07-25T01:05:42.456Z,20.58
2022-07-25T01:08:10.200Z,20.57
2022-07-25T01:10:38.101Z,20.56
2022-07-25T01:13:05.551Z,20.56
2022-07-25T01:15:32.518Z,20.57
2022-07-25T01:17:59.774Z,20.55
2022-07-25T01:20:28.609Z,20.53
2022-07-25T01:22:56.629Z,20.53
2022-07-25T01:25:24.767Z,20.54
2022-07-25T01:27:55.724Z,20.50
2022-07-25T01:30:25.398Z,20.51
2022-07-25T01:32:52.920Z,20.49
2022-07-25T01:35:20.247Z,20.49
2022-07-25T01:37:47.278Z,20.47
2022-07-25T01:40:14.745Z,20.48
2022-07-25T01:42:42.830Z,20.46
2022-07-25T01:45:11.056Z,20.47
2022-07-25T01:47:38.989Z,20.46
2022-07-25T01:50:06.442Z,20.46
2022-07-25T01:52:33.355Z,20.44
2022-07-25T01:55:00.292Z,20.44
2022-07-25T01:57:30.913Z,20.42
2022-07-25T01:59:59.055Z,20.42
2022-07-25T02:02:26.684Z,20.39
2022-07-25T02:04:54.799Z,20.40
2022-07-25T02:07:21.706Z,20.40
2022-07-25T02:09:52.101Z,20.41
2022-07-25T02:12:21.703Z,20.41
2022-07-25T02:14:48.675Z,20.39
2022-07-25T02:17:15.823Z,20.38
2022-07-25T02:19:43.015Z,20.38
2022-07-25T02:22:09.878Z,20.37
2022-07-25T02:24:37.453Z,20.36
2022-07-25T02:27:05.402Z,20.35
2022-07-25T02:29:32.688Z,20.35
2022-07-25T02:31:59.637Z,20.32
2022-07-25T02:34:26.738Z,20.34
2022-07-25T02:36:53.599Z,20.33
2022-07-25T02:39:21.478Z,20.32
2022-07-25T02:41:48.384Z,20.32
2022-07-25T02:44:15.266Z,20.31
2022-07-25T02:46:42.162Z,20.30
2022-07-25T02:49:09.168Z,20.30
2022-07-25T02:51:36.060Z,20.28
2022-07-25T02:54:02.939Z,20.28
2022-07-25T02:56:31.962Z,20.29
2022-07-25T02:58:59.546Z,20.28
2022-07-25T03:01:26.545Z,20.27
2022-07-25T03:03:53.627Z,20.26
2022-07-25T03:06:20.754Z,20.26
2022-07-25T03:08:47.627Z,20.25
2022-07-25T03:11:14.536Z,20.25
2022-07-25T03:13:41.482Z,20.24
2022-07-25T03:16:08.810Z,20.24
2022-07-25T03:18:35.828Z,20.22
2022-07-25T03:21:02.713Z,20.22
2022-07-25T03:23:31.200Z,20.21
2022-07-25T03:25:58.228Z,20.20
2022-07-25T03:28:25.404Z,20.21
2022-07-25T03:30:53.195Z,20.19
2022-07-25T03:33:20.360Z,20.19
2022-07-25T03:35:47.420Z,20.19
2022-07-25T03:38:14.419Z,20.18
2022-07-25T03:40:41.296Z,20.18
2022-07-25T03:43:08.147Z,20.16
2022-07-25T03:45:35.371Z,20.16
2022-07-25T03:48:02.489Z,20.14
2022-07-25T03:50:29.500Z,20.16
2022-07-25T03:52:56.716Z,20.15
2022-07-25T03:55:23.680Z,20.13
2022-07-25T03:57:50.878Z,20.13
2022-07-25T04:00:17.985Z,20.10
2022-07-25T04:02:45.229Z,20.12
2022-07-25T04:05:12.129Z,20.12
2022-07-25T04:07:39.164Z,20.10
2022-07-25T04:10:07.652Z,20.10
2022-07-25T04:12:35.686Z,20.10
2022-07-25T04:15:02.616Z,20.09
2022-07-25T04:17:29.476Z,20.09
2022-07-25T04:19:57.434Z,20.08
2022-07-25T04:22:24.339Z,20.07
2022-07-25T04:24:51.217Z,20.06
2022-07-25T04:27:18.085Z,20.06
2022-07-25T04:29:45.031Z,20.04
2022-07-25T04:32:12.063Z,20.05
2022-07-25T04:34:39.026Z,20.04
2022-07-25T04:37:05.897Z,20.03
2022-07-25T04:39:32.735Z,20.03
2022-07-25T04:41:59.754Z,20.01
2022-07-25T04:44:26.605Z,20.00
2022-07-25T04:46:53.467Z,20.01
2022-07-25T04:49:20.416Z,20.00
2022-07-25T04:51:47.370Z,19.99
2022-07-25T04:54:14.246Z,19.99
2022-07-25T04:56:41.136Z,19.98
2022-07-25T04:59:08.042Z,19.99
2022-07-25T05:01:35.743Z,19.98
2022-07-25T05:04:02.846Z,19.97
2022-07-25T05:06:29.836Z,19.98
2022-07-25T05:08:56.767Z,19.96
2022-07-25T05:11:23.624Z,19.95
2022-07-25T05:13:50.524Z,19.96
2022-07-25T05:16:17.390Z,19.95
2022-07-25T05:18:44.363Z,19.93
2022-07-25T05:21:12.790Z,19.91
2022-07-25T05:23:40.005Z,19.91
2022-07-25T05:26:06.916Z,19.92
2022-07-25T05:28:34.244Z,19.92
2022-07-25T05:31:01.311Z,19.91
2022-07-25T05:33:28.300Z,19.89
2022-07-25T05:35:55.192Z,19.89
2022-07-25T05:38:22.172Z,19.90
2022-07-25T05:40:49.487Z,19.89
2022-07-25T05:43:16.431Z,19.88
2022-07-25T05:45:44.457Z,19.89
2022-07-25T05:48:11.420Z,19.89
2022-07-25T05:50:38.326Z,19.87
2022-07-25T05:53:05.256Z,19.87
2022-07-25T05:55:32.224Z,19.87
2022-07-25T05:57:59.576Z,19.87
2022-07-25T06:00:26.701Z,19.80
2022-07-25T06:02:53.749Z,19.67
2022-07-25T06:05:20.679Z,19.61
2022-07-25T06:07:47.707Z,19.59
2022-07-25T06:10:14.570Z,19.56
2022-07-25T06:12:41.481Z,19.57
2022-07-25T06:15:17.696Z,19.62
2022-07-25T06:17:50.272Z,19.70
2022-07-25T06:20:17.296Z,19.74
2022-07-25T06:22:44.137Z,19.73
2022-07-25T06:25:11.267Z,19.73
2022-07-25T06:27:38.989Z,19.73
2022-07-25T06:30:18.751Z,19.76
2022-07-25T06:32:46.748Z,19.78
2022-07-25T06:35:13.606Z,19.78
2022-07-25T06:37:40.879Z,19.78
2022-07-25T06:40:08.853Z,19.81
2022-07-25T06:42:40.163Z,19.82
2022-07-25T06:45:09.987Z,19.82
2022-07-25T06:47:38.632Z,19.83
2022-07-25T06:50:07.721Z,19.84
2022-07-25T06:52:35.143Z,19.83
2022-07-25T06:55:05.558Z,19.85
2022-07-25T06:57:32.750Z,19.86
2022-07-25T06:59:59.740Z,19.84
2022-07-25T07:02:27.026Z,19.86
2022-07-25T07:04:54.001Z,19.88
2022-07-25T07:07:21.201Z,19.88
2022-07-25T07:09:48.233Z,19.88
2022-07-25T07:12:15.298Z,19.89
2022-07-25T07:14:44.628Z,19.91
2022-07-25T07:17:11.645Z,19.90
2022-07-25T07:19:44.685Z,19.84
2022-07-25T07:22:11.910Z,19.82
2022-07-25T07:24:44.385Z,19.83
2022-07-25T07:27:15.116Z,19.89
2022-07-25T07:29:46.084Z,19.93
2022-07-25T07:32:13.718Z,19.95
2022-07-25T07:34:40.799Z,19.98
2022-07-25T07:37:08.244Z,19.98
2022-07-25T07:39:35.346Z,20.05
2022-07-25T07:42:02.448Z,20.05
2022-07-25T07:44:29.374Z,20.08
2022-07-25T07:46:56.498Z,20.10
2022-07-25T07:49:23.510Z,20.10
2022-07-25T07:51:50.605Z,20.12
2022-07-25T07:54:36.006Z,20.12
2022-07-25T07:57:03.063Z,20.10
2022-07-25T07:59:33.359Z,20.09
2022-07-25T08:02:00.553Z,20.10
2022-07-25T08:04:28.123Z,20.11
2022-07-25T08:06:55.652Z,20.12
2022-07-25T08:09:22.855Z,20.13
2022-07-25T08:11:50.114Z,20.14
2022-07-25T08:14:17.346Z,20.15
2022-07-25T08:16:44.343Z,20.14
2022-07-25T08:19:11.396Z,20.17
2022-07-25T08:21:38.404Z,20.18
2022-07-25T08:24:05.766Z,20.21
2022-07-25T08:26:34.265Z,20.21
2022-07-25T08:29:18.313Z,20.21
2022-07-25T08:31:46.669Z,20.21
2022-07-25T08:34:14.058Z,20.21
2022-07-25T08:36:41.086Z,20.17
2022-07-25T08:39:08.087Z,20.15
2022-07-25T08:41:35.286Z,20.18
2022-07-25T08:44:03.823Z,20.20
2022-07-25T08:46:31.604Z,20.22
2022-07-25T08:48:59.681Z,20.22
2022-07-25T08:51:28.074Z,20.24
2022-07-25T08:53:55.520Z,20.24
2022-07-25T08:56:22.630Z,20.26
2022-07-25T08:58:50.117Z,20.25
2022-07-25T09:01:17.408Z,20.26
2022-07-25T09:03:44.677Z,20.28
2022-07-25T09:06:19.515Z,20.28
2022-07-25T09:08:57.951Z,20.31
2022-07-25T09:11:38.465Z,20.33
2022-07-25T09:14:15.180Z,20.37
2022-07-25T09:16:45.385Z,20.37
2022-07-25T09:19:24.276Z,20.37
2022-07-25T09:22:19.568Z,20.37
2022-07-25T09:24:51.343Z,20.43
2022-07-25T09:27:20.260Z,20.43
2022-07-25T09:29:47.559Z,20.46
2022-07-25T09:32:21.099Z,20.42
2022-07-25T09:34:50.161Z,20.38
2022-07-25T09:37:20.494Z,20.39
2022-07-25T09:39:50.357Z,20.38
2022-07-25T09:42:32.522Z,20.39
2022-07-25T09:45:07.302Z,20.42
2022-07-25T09:47:36.961Z,20.43
2022-07-25T09:50:05.393Z,20.51
2022-07-25T09:52:33.996Z,20.50
2022-07-25T09:55:03.790Z,20.53
2022-07-25T09:57:30.839Z,20.53
2022-07-25T10:00:00.634Z,20.53
2022-07-25T10:02:42.110Z,20.55
2022-07-25T10:05:25.035Z,20.52
2022-07-25T10:07:54.859Z,20.51
2022-07-25T10:10:26.597Z,20.46
2022-07-25T10:13:03.182Z,20.44
2022-07-25T10:15:52.622Z,20.40
2022-07-25T10:18:25.205Z,20.41
2022-07-25T10:21:24.534Z,20.37
2022-07-25T10:24:08.886Z,20.36
2022-07-25T10:26:42.045Z,20.37
2022-07-25T10:29:13.524Z,20.34
2022-07-25T10:31:51.483Z,20.34
2022-07-25T10:34:30.093Z,20.35
2022-07-25T10:36:57.600Z,20.35
2022-07-25T10:39:24.768Z,20.36
2022-07-25T10:42:02.875Z,20.36
2022-07-25T10:44:42.154Z,20.35
2022-07-25T10:47:11.636Z,20.34
2022-07-25T10:50:14.527Z,20.35
2022-07-25T10:52:42.912Z,20.40
2022-07-25T10:55:10.218Z,20.43
2022-07-25T10:57:49.799Z,20.40
2022-07-25T11:00:22.534Z,20.42
2022-07-25T11:02:50.738Z,20.42
2022-07-25T11:05:17.961Z,20.41
2022-07-25T11:08:19.987Z,20.35
2022-07-25T11:10:42.259Z,20.32
2022-07-25T11:13:15.617Z,20.30
2022-07-25T11:15:45.764Z,20.29
2022-07-25T11:18:13.037Z,20.34
2022-07-25T11:20:40.481Z,20.33
2022-07-25T11:23:07.732Z,20.31
2022-07-25T11:25:34.876Z,20.28
2022-07-25T11:28:06.165Z,20.25
2022-07-25T11:30:33.123Z,20.24
2022-07-25T11:33:04.545Z,20.23
2022-07-25T11:35:33.518Z,20.21
2022-07-25T11:38:04.939Z,20.20
2022-07-25T11:40:37.249Z,20.20
2022-07-25T11:43:04.275Z,20.23
2022-07-25T11:45:38.346Z,20.22
2022-07-25T11:48:09.551Z,20.19
2022-07-25T11:50:41.920Z,20.17
2022-07-25T11:53:11.826Z,20.18
2022-07-25T11:55:47.348Z,20.16
2022-07-25T11:58:15.373Z,20.18
2022-07-25T12:00:47.803Z,20.23
2022-07-25T12:03:20.474Z,20.22
2022-07-25T12:05:49.110Z,20.20
2022-07-25T12:08:21.383Z,20.18
2022-07-25T12:10:51.861Z,20.16
2022-07-25T12:13:28.023Z,20.17
2022-07-25T12:15:58.473Z,20.15
2022-07-25T12:18:26.295Z,20.21
2022-07-25T12:21:43.010Z,20.18
2022-07-25T12:24:10.273Z,20.17
2022-07-25T12:26:37.922Z,20.16
2022-07-25T12:29:05.395Z,20.18
2022-07-25T12:31:34.000Z,20.15
2022-07-25T12:34:01.091Z,20.12
2022-07-25T12:36:28.093Z,20.09
2022-07-25T12:38:55.699Z,20.09
2022-07-25T12:41:23.978Z,20.06
2022-07-25T12:43:51.061Z,20.04
2022-07-25T12:46:18.169Z,20.09
2022-07-25T12:48:45.347Z,20.07
2022-07-25T12:51:12.709Z,20.12
2022-07-25T12:53:42.460Z,20.12
2022-07-25T12:56:10.347Z,20.06
2022-07-25T12:58:38.277Z,20.09
2022-07-25T13:01:06.832Z,20.12
2022-07-25T13:03:34.229Z,20.13
2022-07-25T13:06:01.328Z,20.21
2022-07-25T13:08:28.565Z,20.25
2022-07-25T13:10:55.679Z,20.21
2022-07-25T13:13:22.921Z,20.22
2022-07-25T13:15:50.725Z,20.22
2022-07-25T13:18:17.894Z,20.19
2022-07-25T13:20:46.210Z,20.19
2022-07-25T13:23:17.492Z,20.20
2022-07-25T13:25:48.521Z,20.19
2022-07-25T13:28:15.851Z,20.18
2022-07-25T13:30:46.783Z,20.12
2022-07-25T13:33:14.522Z,20.17
2022-07-25T13:35:41.888Z,20.25
2022-07-25T13:38:12.646Z,20.28
2022-07-25T13:40:43.643Z,20.30
2022-07-25T13:43:11.166Z,20.30
2022-07-25T13:45:39.249Z,20.24
2022-07-25T13:50:55.821Z,20.12
2022-07-25T13:53:27.989Z,20.09
2022-07-25T13:55:58.602Z,20.04
2022-07-25T13:58:26.551Z,20.00
2022-07-25T14:00:54.299Z,19.96
2022-07-25T14:03:21.922Z,19.96
2022-07-25T14:05:49.426Z,19.93
2022-07-25T14:08:16.550Z,19.91
2022-07-25T14:10:44.316Z,19.90
2022-07-25T14:13:13.658Z,19.92
2022-07-25T14:15:42.954Z,19.94
2022-07-25T14:18:10.272Z,19.98
2022-07-25T14:20:38.525Z,20.00
2022-07-25T14:23:05.770Z,20.00
2022-07-25T14:25:33.584Z,20.00
2022-07-25T14:28:01.132Z,20.04
2022-07-25T14:30:28.413Z,20.04
2022-07-25T14:32:55.486Z,20.04
2022-07-25T14:35:22.923Z,20.04
2022-07-25T14:37:50.271Z,20.00
2022-07-25T14:40:17.956Z,20.01
2022-07-25T14:42:45.681Z,20.02
2022-07-25T14:45:15.505Z,20.01
2022-07-25T14:47:42.803Z,20.04
2022-07-25T14:50:10.426Z,20.04
2022-07-25T14:52:37.906Z,20.04
2022-07-25T14:55:05.899Z,20.06
2022-07-25T14:57:33.142Z,20.16
2022-07-25T15:00:02.334Z,20.13
2022-07-25T15:02:30.352Z,20.18
2022-07-25T15:04:57.402Z,20.20
2022-07-25T15:07:24.949Z,20.26
2022-07-25T15:11:40.261Z,20.22
2022-07-25T15:14:07.545Z,20.30
2022-07-25T15:16:34.967Z,20.27
2022-07-25T15:19:16.605Z,20.25
2022-07-25T15:21:45.051Z,20.34
2022-07-25T15:24:12.298Z,20.32
2022-07-25T15:26:39.735Z,20.29
2022-07-25T15:29:08.530Z,20.24
2022-07-25T15:31:38.729Z,20.23
2022-07-25T15:34:06.105Z,20.20
2022-07-25T15:36:33.050Z,20.19
2022-07-25T15:39:00.158Z,20.12
2022-07-25T15:41:27.108Z,20.06
2022-07-25T15:43:54.401Z,20.02
2022-07-25T15:46:22.013Z,19.95
2022-07-25T15:48:49.456Z,19.90
2022-07-25T15:51:17.244Z,19.88
2022-07-25T15:53:44.968Z,19.84
2022-07-25T15:56:16.321Z,19.80
2022-07-25T15:58:44.439Z,19.80
2022-07-25T16:01:11.708Z,19.83
2022-07-25T16:03:38.870Z,19.87
2022-07-25T16:06:06.129Z,19.81
2022-07-25T16:08:33.118Z,19.77
2022-07-25T16:11:00.467Z,19.75
2022-07-25T16:13:27.924Z,19.76
2022-07-25T16:15:55.068Z,19.77
2022-07-25T16:18:22.917Z,19.79
2022-07-25T16:20:50.347Z,19.80
2022-07-25T16:23:17.425Z,19.78
2022-07-25T16:25:44.348Z,19.78
2022-07-25T16:28:11.340Z,19.79
2022-07-25T16:30:39.378Z,19.78
2022-07-25T16:33:06.397Z,19.80
2022-07-25T16:35:33.450Z,19.83
2022-07-25T16:38:00.830Z,19.83
2022-07-25T16:40:30.865Z,19.82
2022-07-25T16:42:59.750Z,19.81
2022-07-25T16:45:27.575Z,19.85
2022-07-25T16:47:54.874Z,19.88
2022-07-25T16:50:21.876Z,19.88
2022-07-25T16:52:48.812Z,19.88
2022-07-25T16:55:15.794Z,19.88
2022-07-25T16:57:42.808Z,19.87
2022-07-25T17:00:10.289Z,19.88
2022-07-25T17:02:37.842Z,19.91
2022-07-25T17:05:05.420Z,19.92
2022-07-25T17:07:32.879Z,19.92
2022-07-25T17:09:59.783Z,19.92
2022-07-25T17:12:26.693Z,19.92
2022-07-25T17:14:54.187Z,19.92
2022-07-25T17:17:21.305Z,19.89
2022-07-25T17:19:48.497Z,19.87
2022-07-25T17:22:15.512Z,19.84
2022-07-25T17:24:42.693Z,19.85
2022-07-25T17:27:10.476Z,19.84
2022-07-25T17:29:37.908Z,19.81
2022-07-25T17:32:07.162Z,19.84
2022-07-25T17:34:34.468Z,19.89
2022-07-25T17:37:04.628Z,19.87
2022-07-25T17:39:33.382Z,19.87
2022-07-25T17:42:00.920Z,19.84
2022-07-25T17:44:28.088Z,19.83
2022-07-25T17:46:55.528Z,19.82
2022-07-25T17:49:23.047Z,19.84
2022-07-25T17:51:50.595Z,19.81
2022-07-25T17:54:17.989Z,19.81
2022-07-25T17:56:45.908Z,19.82
2022-07-25T17:59:14.078Z,19.81
2022-07-25T18:01:42.798Z,19.81
2022-07-25T18:04:11.722Z,19.87
2022-07-25T18:06:38.988Z,19.85
2022-07-25T18:09:06.259Z,19.79
2022-07-25T18:11:33.902Z,19.76
2022-07-25T18:14:01.013Z,19.76
2022-07-25T18:16:28.394Z,19.78
2022-07-25T18:18:55.655Z,19.76
2022-07-25T18:21:24.131Z,19.78
2022-07-25T18:23:51.884Z,19.76
2022-07-25T18:26:19.142Z,19.76
2022-07-25T18:28:46.533Z,19.82
2022-07-25T18:31:14.241Z,19.83
2022-07-25T18:33:41.818Z,19.86
2022-07-25T18:36:09.282Z,19.89
2022-07-25T18:38:36.802Z,19.86
2022-07-25T18:41:28.094Z,19.86
2022-07-25T18:43:53.014Z,19.83
2022-07-25T18:46:20.652Z,19.86
2022-07-25T18:48:48.570Z,19.89
2022-07-25T18:51:15.792Z,19.91
2022-07-25T18:53:47.381Z,19.95
2022-07-25T18:56:20.554Z,19.99
2022-07-25T18:58:47.978Z,20.03
2022-07-25T19:01:15.373Z,20.06
2022-07-25T19:03:42.684Z,20.06
2022-07-25T19:06:10.030Z,20.10
2022-07-25T19:08:37.800Z,20.08
2022-07-25T19:11:06.659Z,20.11
2022-07-25T19:13:51.644Z,20.13
2022-07-25T19:16:22.370Z,20.15
2022-07-25T19:18:51.358Z,20.14
2022-07-25T19:21:18.797Z,20.15
2022-07-25T19:23:50.793Z,20.12
2022-07-25T19:26:20.803Z,20.11
2022-07-25T19:28:48.553Z,20.06
2022-07-25T19:31:17.622Z,20.03
2022-07-25T19:33:46.492Z,19.99
2022-07-25T19:36:15.559Z,19.96
2022-07-25T19:38:43.247Z,19.95
2022-07-25T19:41:10.565Z,19.95
2022-07-25T19:43:39.665Z,19.97
2022-07-25T19:46:08.057Z,19.95
2022-07-25T19:48:35.330Z,19.91
2022-07-25T19:51:03.312Z,19.86
2022-07-25T19:53:32.951Z,19.86
2022-07-25T19:56:02.360Z,19.81
2022-07-25T19:58:36.672Z,19.70
2022-07-25T20:01:05.742Z,19.74
2022-07-25T20:03:32.835Z,19.85
2022-07-25T20:06:03.389Z,19.91
2022-07-25T20:08:35.065Z,19.90
2022-07-25T20:11:04.207Z,19.92
2022-07-25T20:13:33.632Z,19.92
2022-07-25T20:16:02.659Z,19.91
2022-07-25T20:18:32.863Z,19.92
2022-07-25T20:21:00.344Z,19.93
2022-07-25T20:23:29.179Z,19.93
2022-07-25T20:25:56.303Z,19.93
2022-07-25T20:28:23.369Z,19.93
2022-07-25T20:30:51.321Z,19.94
2022-07-25T20:33:19.921Z,19.94
2022-07-25T20:35:47.897Z,19.94
2022-07-25T20:38:19.641Z,19.92
2022-07-25T20:40:49.709Z,19.94
2022-07-25T20:43:20.018Z,19.93
2022-07-25T20:45:47.697Z,19.92
2022-07-25T20:48:15.702Z,19.92
2022-07-25T20:50:44.381Z,19.94
2022-07-25T20:53:11.919Z,19.96
2022-07-25T20:55:40.572Z,19.93
2022-07-25T20:58:08.252Z,19.96
2022-07-25T21:00:36.338Z,19.97
2022-07-25T21:03:03.524Z,19.92
2022-07-25T21:05:31.055Z,19.95
2022-07-25T21:08:00.770Z,19.93
2022-07-25T21:10:28.052Z,19.94
2022-07-25T21:12:57.322Z,19.91
2022-07-25T21:15:25.798Z,19.88
2022-07-25T21:17:53.153Z,19.90
2022-07-25T21:20:20.677Z,19.86
2022-07-25T21:22:48.324Z,19.82
2022-07-25T21:25:17.885Z,19.79
2022-07-25T21:27:45.655Z,19.78
2022-07-25T21:30:13.240Z,19.74
2022-07-25T21:32:41.816Z,19.74
2022-07-25T21:35:09.412Z,19.76
2022-07-25T21:37:36.731Z,19.72
2022-07-25T21:40:05.243Z,19.70
2022-07-25T21:42:36.077Z,19.70
2022-07-25T21:45:04.845Z,19.68
2022-07-25T21:47:34.773Z,19.66
2022-07-25T21:50:25.027Z,19.65
2022-07-25T21:52:53.711Z,19.66
2022-07-25T21:55:22.128Z,19.63
2022-07-25T21:57:52.055Z,19.63
2022-07-25T22:00:20.956Z,19.61
2022-07-25T22:02:48.615Z,19.60
2022-07-25T22:05:20.668Z,19.59
2022-07-25T22:07:48.613Z,19.57
2022-07-25T22:10:18.145Z,19.57
2022-07-25T22:12:45.923Z,19.54
2022-07-25T22:15:14.443Z,19.55
2022-07-25T22:17:48.964Z,19.54
2022-07-25T22:20:19.122Z,19.53
2022-07-25T22:22:48.674Z,19.52
2022-07-25T22:25:16.705Z,19.49
2022-07-25T22:27:44.770Z,19.48
2022-07-25T22:30:18.274Z,19.48
2022-07-25T22:32:53.898Z,19.47
2022-07-25T22:35:21.302Z,19.45
2022-07-25T22:37:48.484Z,19.44
2022-07-25T22:40:15.562Z,19.42
2022-07-25T22:42:43.029Z,19.42
2022-07-25T22:45:10.739Z,19.42
2022-07-25T22:47:38.189Z,19.40
2022-07-25T22:50:05.863Z,19.41
2022-07-25T22:52:35.379Z,19.39
2022-07-25T22:55:02.797Z,19.38
2022-07-25T22:57:29.750Z,19.36
2022-07-25T23:00:07.702Z,19.36
2022-07-25T23:02:34.789Z,19.34
2022-07-25T23:05:02.102Z,19.34
2022-07-25T23:07:29.159Z,19.33
2022-07-25T23:09:56.316Z,19.31
2022-07-25T23:12:23.385Z,19.30
2022-07-25T23:14:50.663Z,19.28
2022-07-25T23:17:17.851Z,19.26
2022-07-25T23:19:45.634Z,19.25
2022-07-25T23:22:12.871Z,19.23
2022-07-25T23:24:39.780Z,19.23
2022-07-25T23:27:07.336Z,19.20
2022-07-25T23:29:34.541Z,19.19
2022-07-25T23:32:01.978Z,19.20
2022-07-25T23:34:28.980Z,19.17
2022-07-25T23:36:55.865Z,19.16
2022-07-25T23:39:22.780Z,19.16
2022-07-25T23:41:49.735Z,19.14
2022-07-25T23:44:16.598Z,19.13
2022-07-25T23:46:44.460Z,19.11
2022-07-25T23:49:13.357Z,19.08
2022-07-25T23:51:40.604Z,19.07
2022-07-25T23:54:07.604Z,19.05
2022-07-25T23:56:34.488Z,19.05
2022-07-25T23:59:01.352Z,19.02
